Terminal Aerodrome Forecast
Issued by NWS Sterling, VA

Current Version | Previous Version | Graphics & Text | Print | Product List | Glossary On
Versions: 1 2 3 4 5 6 7 8 9 10 11 12 13 14 15 16 17 18 19 20 21 22 23 24 25
000
FTUS41 KLWX 280449 AAC
TAFDCA
TAF AMD
KDCA 280449Z 2805/2824 03006KT 2SM SHRA OVC005
     FM280800 27007KT 6SM -SHRA BR SCT090
     FM281200 26007KT P6SM SCT250
     FM281800 26015G24KT P6SM BKN060=

USA.gov is the U.S. government's official web portal to all federal, state and local government web resources and services.